createdAt,value
2018-12-02T00:00:56.987Z,11.07
2018-12-02T00:01:56.968Z,11.11
2018-12-02T00:02:56.971Z,11.10
2018-12-02T00:03:56.940Z,11.11
2018-12-02T00:04:56.912Z,11.07
2018-12-02T00:05:56.891Z,11.15
2018-12-02T00:06:56.870Z,11.15
2018-12-02T00:07:56.856Z,11.14
2018-12-02T00:08:56.857Z,11.14
2018-12-02T00:09:56.804Z,11.10
2018-12-02T00:10:56.788Z,11.17
2018-12-02T00:11:56.785Z,11.15
2018-12-02T00:12:56.766Z,11.17
2018-12-02T00:13:57.392Z,11.09
2018-12-02T00:14:56.727Z,11.10
2018-12-02T00:15:57.383Z,11.11
2018-12-02T00:16:56.685Z,11.09
2018-12-02T00:17:56.672Z,11.11
2018-12-02T00:18:56.658Z,11.09
2018-12-02T00:19:56.625Z,11.04
2018-12-02T00:20:56.614Z,11.07
2018-12-02T00:21:56.578Z,11.03
2018-12-02T00:22:56.562Z,11.07
2018-12-02T00:23:56.547Z,11.10
2018-12-02T00:24:56.534Z,11.06
2018-12-02T00:25:56.507Z,11.03
2018-12-02T00:26:56.501Z,11.06
2018-12-02T00:27:56.461Z,11.04
2018-12-02T00:28:56.481Z,11.02
2018-12-02T00:29:56.429Z,11.03
2018-12-02T00:30:56.407Z,11.02
2018-12-02T00:31:56.380Z,11.00
2018-12-02T00:32:56.412Z,11.07
2018-12-02T00:33:56.344Z,11.07
2018-12-02T00:34:56.683Z,11.07
2018-12-02T00:35:56.325Z,11.02
2018-12-02T00:36:56.287Z,11.04
2018-12-02T00:37:56.275Z,11.10
2018-12-02T00:38:56.256Z,11.14
2018-12-02T00:39:56.230Z,11.02
2018-12-02T00:40:56.235Z,11.07
2018-12-02T00:41:56.192Z,11.00
2018-12-02T00:42:56.179Z,11.02
2018-12-02T00:43:56.150Z,11.03
2018-12-02T00:44:56.131Z,10.99
2018-12-02T00:45:56.119Z,11.02
2018-12-02T00:46:56.113Z,11.04
2018-12-02T00:47:56.089Z,11.03
2018-12-02T00:48:56.068Z,11.04
2018-12-02T00:49:56.047Z,11.14
2018-12-02T00:50:56.058Z,11.17
2018-12-02T00:51:56.000Z,11.02
2018-12-02T00:52:55.989Z,11.11
2018-12-02T00:53:55.978Z,11.15
2018-12-02T00:54:55.950Z,11.14
2018-12-02T00:55:55.929Z,11.14
2018-12-02T00:56:56.431Z,11.14
2018-12-02T00:57:55.891Z,11.11
2018-12-02T00:58:55.879Z,11.09
2018-12-02T00:59:55.843Z,11.17
2018-12-02T01:00:55.842Z,11.04
2018-12-02T01:01:55.822Z,11.11
2018-12-02T01:02:55.785Z,11.15
2018-12-02T01:03:55.766Z,11.09
2018-12-02T01:04:55.749Z,11.14
2018-12-02T01:05:55.748Z,11.14
2018-12-02T01:06:55.733Z,11.11
2018-12-02T01:07:55.692Z,11.11
2018-12-02T01:08:55.668Z,11.04
2018-12-02T01:09:55.647Z,11.17
2018-12-02T01:10:55.626Z,11.18
2018-12-02T01:11:55.611Z,11.18
2018-12-02T01:12:55.609Z,11.15
2018-12-02T01:13:55.571Z,11.19
2018-12-02T01:14:55.551Z,11.19
2018-12-02T01:15:55.553Z,11.22
2018-12-02T01:16:55.513Z,11.18
2018-12-02T01:17:55.513Z,11.17
2018-12-02T01:18:55.489Z,11.21
2018-12-02T01:19:55.460Z,11.19
2018-12-02T01:20:55.443Z,11.17
2018-12-02T01:21:55.421Z,11.18
2018-12-02T01:22:55.393Z,11.18
2018-12-02T01:23:55.393Z,11.21
2018-12-02T01:24:55.357Z,11.19
2018-12-02T01:25:55.340Z,11.21
2018-12-02T01:26:55.336Z,11.22
2018-12-02T01:27:55.319Z,11.24
2018-12-02T01:28:55.284Z,11.22
2018-12-02T01:29:55.277Z,11.25
2018-12-02T01:30:55.241Z,11.22
2018-12-02T01:31:55.223Z,11.21
2018-12-02T01:32:55.207Z,11.24
2018-12-02T01:33:55.196Z,11.21
2018-12-02T01:34:55.160Z,11.18
2018-12-02T01:35:55.167Z,11.22
2018-12-02T01:36:55.128Z,11.18
2018-12-02T01:37:55.107Z,11.15
2018-12-02T01:38:55.084Z,11.15
2018-12-02T01:39:55.067Z,11.14
2018-12-02T01:40:55.068Z,11.15
2018-12-02T01:41:55.037Z,11.19
2018-12-02T01:42:55.028Z,11.22
2018-12-02T01:43:54.987Z,11.17
2018-12-02T01:44:54.970Z,11.11
2018-12-02T01:45:54.957Z,11.11
2018-12-02T01:46:54.950Z,11.15
2018-12-02T01:47:54.916Z,11.17
2018-12-02T01:48:54.895Z,11.19
2018-12-02T01:49:54.876Z,11.22
2018-12-02T01:50:54.859Z,11.11
2018-12-02T01:51:54.837Z,11.21
2018-12-02T01:52:54.839Z,11.18
2018-12-02T01:53:54.812Z,11.11
2018-12-02T01:54:54.777Z,11.18
2018-12-02T01:55:54.759Z,11.14
2018-12-02T01:56:54.740Z,11.11
2018-12-02T01:57:54.736Z,11.17
2018-12-02T01:58:54.702Z,11.15
2018-12-02T01:59:54.679Z,11.11
2018-12-02T02:00:54.660Z,11.09
2018-12-02T02:01:54.644Z,11.02
2018-12-02T02:02:54.632Z,10.99
2018-12-02T02:03:54.628Z,11.00
2018-12-02T02:04:54.616Z,10.88
2018-12-02T02:05:54.567Z,10.89
2018-12-02T02:06:54.548Z,10.84
2018-12-02T02:07:54.525Z,10.89
2018-12-02T02:08:54.524Z,10.73
2018-12-02T02:09:54.489Z,10.85
2018-12-02T02:10:54.469Z,10.89
2018-12-02T02:11:54.453Z,10.78
2018-12-02T02:12:54.429Z,10.89
2018-12-02T02:13:54.436Z,10.91
2018-12-02T02:14:54.391Z,10.91
2018-12-02T02:15:54.392Z,10.89
2018-12-02T02:16:54.352Z,10.99
2018-12-02T02:17:54.332Z,11.02
2018-12-02T02:18:54.313Z,11.02
2018-12-02T02:19:54.295Z,10.94
2018-12-02T02:20:54.273Z,10.96
2018-12-02T02:21:54.272Z,10.86
2018-12-02T02:22:54.235Z,10.86
2018-12-02T02:23:54.217Z,10.89
2018-12-02T02:24:54.195Z,10.82
2018-12-02T02:25:54.194Z,10.82
2018-12-02T02:26:54.155Z,10.82
2018-12-02T02:27:54.135Z,10.76
2018-12-02T02:28:54.117Z,10.70
2018-12-02T02:29:54.097Z,10.73
2018-12-02T02:30:54.078Z,10.71
2018-12-02T02:31:54.079Z,10.61
2018-12-02T02:32:54.052Z,10.59
2018-12-02T02:33:54.015Z,10.67
2018-12-02T02:34:53.995Z,10.59
2018-12-02T02:35:53.981Z,10.55
2018-12-02T02:36:53.964Z,10.52
2018-12-02T02:37:53.963Z,10.48
2018-12-02T02:38:53.922Z,10.59
2018-12-02T02:39:53.967Z,10.52
2018-12-02T02:40:53.882Z,10.48
2018-12-02T02:41:53.879Z,10.40
2018-12-02T02:42:53.869Z,10.38
2018-12-02T02:43:53.822Z,10.32
2018-12-02T02:44:53.802Z,10.40
2018-12-02T02:45:53.784Z,10.41
2018-12-02T02:46:53.772Z,10.32
2018-12-02T02:47:53.758Z,10.27
2018-12-02T02:48:53.739Z,10.23
2018-12-02T02:49:53.701Z,10.26
2018-12-02T02:50:53.685Z,10.27
2018-12-02T02:51:53.669Z,10.18
2018-12-02T02:52:53.656Z,10.14
2018-12-02T02:53:53.625Z,10.27
2018-12-02T02:54:53.606Z,10.27
2018-12-02T02:55:53.582Z,10.29
2018-12-02T02:56:53.572Z,10.17
2018-12-02T02:57:54.463Z,10.18
2018-12-02T02:58:53.524Z,10.18
2018-12-02T02:59:53.506Z,10.15
2018-12-02T03:00:53.488Z,10.14
2018-12-02T03:01:53.467Z,10.14
2018-12-02T03:02:53.452Z,10.11
2018-12-02T03:03:53.441Z,10.15
2018-12-02T03:04:53.425Z,10.15
2018-12-02T03:05:53.384Z,10.09
2018-12-02T03:06:53.363Z,10.15
2018-12-02T03:07:53.349Z,10.14
2018-12-02T03:08:53.351Z,10.09
2018-12-02T03:09:53.303Z,10.11
2018-12-02T03:10:53.285Z,10.05
2018-12-02T03:11:53.266Z,10.04
2018-12-02T03:12:53.265Z,10.02
2018-12-02T03:13:53.242Z,10.07
2018-12-02T03:14:53.206Z,10.02
2018-12-02T03:15:53.189Z,10.01
2018-12-02T03:16:53.163Z,10.04
2018-12-02T03:17:53.161Z,10.04
2018-12-02T03:18:53.131Z,10.05
2018-12-02T03:19:53.120Z,10.05
2018-12-02T03:20:53.097Z,10.02
2018-12-02T03:21:53.065Z,10.01
2018-12-02T03:22:53.065Z,9.91
2018-12-02T03:23:53.032Z,10.11
2018-12-02T03:24:53.027Z,9.93
2018-12-02T03:25:52.995Z,9.91
2018-12-02T03:26:52.967Z,9.94
2018-12-02T03:27:52.948Z,9.97
2018-12-02T03:28:52.943Z,9.87
2018-12-02T03:29:52.920Z,10.01
2018-12-02T03:30:52.907Z,9.94
2018-12-02T03:31:52.869Z,9.94
2018-12-02T03:32:52.858Z,9.90
2018-12-02T03:33:52.828Z,9.96
2018-12-02T03:34:52.806Z,9.94
2018-12-02T03:35:52.804Z,9.90
2018-12-02T03:36:52.766Z,9.89
2018-12-02T03:37:52.745Z,9.87
2018-12-02T03:38:52.730Z,9.97
2018-12-02T03:39:52.706Z,9.89
2018-12-02T03:40:52.703Z,9.99
2018-12-02T03:41:52.664Z,9.90
2018-12-02T03:42:52.646Z,9.99
2018-12-02T03:43:52.620Z,9.87
2018-12-02T03:44:52.612Z,9.90
2018-12-02T03:45:52.604Z,9.90
2018-12-02T03:46:52.563Z,9.90
2018-12-02T03:47:52.542Z,9.87
2018-12-02T03:48:52.524Z,9.96
2018-12-02T03:49:52.508Z,9.91
2018-12-02T03:50:52.502Z,9.99
2018-12-02T03:51:52.467Z,9.90
2018-12-02T03:52:52.446Z,9.87
2018-12-02T03:53:52.421Z,9.90
2018-12-02T03:54:52.402Z,9.90
2018-12-02T03:55:52.397Z,9.93
2018-12-02T03:56:52.361Z,9.87
2018-12-02T03:57:52.349Z,9.90
2018-12-02T03:58:52.321Z,9.90
2018-12-02T03:59:52.300Z,9.90
2018-12-02T04:00:52.308Z,9.87
2018-12-02T04:01:52.263Z,9.89
2018-12-02T04:02:52.244Z,9.99
2018-12-02T04:03:52.226Z,9.87
2018-12-02T04:04:52.209Z,9.84
2018-12-02T04:05:52.229Z,9.86
2018-12-02T04:06:52.180Z,9.89
2018-12-02T04:07:52.146Z,9.89
2018-12-02T04:08:52.117Z,9.90
2018-12-02T04:09:52.101Z,9.91
2018-12-02T04:10:52.076Z,9.89
2018-12-02T04:11:52.060Z,9.90
2018-12-02T04:12:52.050Z,9.90
2018-12-02T04:13:52.016Z,9.87
2018-12-02T04:14:51.992Z,9.91
2018-12-02T04:15:52.009Z,9.87
2018-12-02T04:16:51.991Z,9.86
2018-12-02T04:17:51.965Z,9.91
2018-12-02T04:18:51.930Z,9.90
2018-12-02T04:19:51.897Z,9.90
2018-12-02T04:20:51.876Z,9.90
2018-12-02T04:21:52.157Z,9.87
2018-12-02T04:22:51.846Z,9.90
2018-12-02T04:23:51.834Z,9.97
2018-12-02T04:24:51.811Z,9.90
2018-12-02T04:25:51.773Z,9.89
2018-12-02T04:26:51.775Z,9.89
2018-12-02T04:27:51.740Z,9.90
2018-12-02T04:28:51.713Z,9.90
2018-12-02T04:29:51.719Z,9.90
2018-12-02T04:30:51.671Z,9.89
2018-12-02T04:31:51.654Z,9.87
2018-12-02T04:32:51.654Z,9.90
2018-12-02T04:33:51.612Z,9.90
2018-12-02T04:34:51.596Z,9.90
2018-12-02T04:35:51.593Z,9.91
2018-12-02T04:36:51.554Z,9.90
2018-12-02T04:37:51.540Z,9.94
2018-12-02T04:38:51.513Z,9.90
2018-12-02T04:39:51.508Z,9.90
2018-12-02T04:40:51.490Z,9.84
2018-12-02T04:41:51.454Z,9.84
2018-12-02T04:42:51.437Z,9.90
2018-12-02T04:43:51.418Z,9.90
2018-12-02T04:44:51.386Z,9.94
2018-12-02T04:45:51.388Z,9.90
2018-12-02T04:46:51.346Z,9.87
2018-12-02T04:47:51.345Z,9.93
2018-12-02T04:48:51.309Z,9.91
2018-12-02T04:49:51.288Z,9.87
2018-12-02T04:50:51.288Z,9.94
2018-12-02T04:51:51.247Z,9.87
2018-12-02T04:52:51.259Z,9.91
2018-12-02T04:53:51.207Z,9.90
2018-12-02T04:54:51.187Z,10.05
2018-12-02T04:55:51.179Z,9.99
2018-12-02T04:56:51.164Z,9.99
2018-12-02T04:57:51.142Z,10.01
2018-12-02T04:58:51.108Z,9.87
2018-12-02T04:59:51.087Z,9.90
2018-12-02T05:00:51.076Z,9.87
2018-12-02T05:01:51.065Z,9.90
2018-12-02T05:02:51.037Z,9.90
2018-12-02T05:03:51.007Z,9.94
2018-12-02T05:04:50.988Z,9.99
2018-12-02T05:05:50.968Z,9.96
2018-12-02T05:06:50.946Z,9.96
2018-12-02T05:07:50.943Z,9.91
2018-12-02T05:08:50.906Z,10.01
2018-12-02T05:09:50.887Z,9.90
2018-12-02T05:10:50.862Z,9.89
2018-12-02T05:11:50.843Z,10.08
2018-12-02T05:12:50.828Z,9.91
2018-12-02T05:13:50.819Z,9.91
2018-12-02T05:14:50.780Z,9.94
2018-12-02T05:15:50.761Z,9.96
2018-12-02T05:16:50.740Z,9.93
2018-12-02T05:17:50.725Z,10.04
2018-12-02T05:18:50.730Z,10.07
2018-12-02T05:19:50.684Z,9.96
2018-12-02T05:20:50.660Z,9.96
2018-12-02T05:21:50.639Z,9.93
2018-12-02T05:22:50.633Z,9.97
2018-12-02T05:23:50.617Z,9.93
2018-12-02T05:24:50.583Z,10.05
2018-12-02T05:25:50.577Z,9.89
2018-12-02T05:26:50.541Z,10.01
2018-12-02T05:27:50.530Z,10.02
2018-12-02T05:28:50.520Z,9.99
2018-12-02T05:29:50.482Z,9.96
2018-12-02T05:30:50.479Z,9.93
2018-12-02T05:31:50.438Z,10.04
2018-12-02T05:32:50.425Z,10.04
2018-12-02T05:33:50.397Z,9.99
2018-12-02T05:34:50.387Z,10.02
2018-12-02T05:35:50.376Z,10.05
2018-12-02T05:36:50.338Z,10.05
2018-12-02T05:37:50.321Z,9.96
2018-12-02T05:38:50.301Z,9.97
2018-12-02T05:39:50.279Z,10.02
2018-12-02T05:40:50.274Z,9.97
2018-12-02T05:41:50.237Z,10.07
2018-12-02T05:42:50.219Z,10.01
2018-12-02T05:43:50.201Z,10.08
2018-12-02T05:44:50.180Z,10.02
2018-12-02T05:45:50.178Z,9.97
2018-12-02T05:46:50.138Z,9.93
2018-12-02T05:47:50.121Z,10.01
2018-12-02T05:48:50.099Z,10.01
2018-12-02T05:49:50.074Z,10.02
2018-12-02T05:50:50.060Z,10.07
2018-12-02T05:51:50.048Z,10.07
2018-12-02T05:52:50.019Z,9.99
2018-12-02T05:53:49.995Z,10.05
2018-12-02T05:54:49.976Z,9.99
2018-12-02T05:55:49.960Z,10.04
2018-12-02T05:56:49.957Z,10.05
2018-12-02T05:57:49.919Z,10.02
2018-12-02T05:58:49.908Z,10.05
2018-12-02T05:59:49.880Z,10.04
2018-12-02T06:00:49.855Z,9.99
2018-12-02T06:01:49.839Z,10.05
2018-12-02T06:02:49.837Z,10.02
2018-12-02T06:03:49.811Z,9.96
2018-12-02T06:04:49.783Z,10.05
2018-12-02T06:05:49.767Z,9.97
2018-12-02T06:06:49.737Z,10.01
2018-12-02T06:07:49.718Z,10.01
2018-12-02T06:08:49.711Z,9.96
2018-12-02T06:09:49.678Z,10.07
2018-12-02T06:10:49.653Z,10.02
2018-12-02T06:11:49.639Z,10.01
2018-12-02T06:12:49.611Z,10.11
2018-12-02T06:13:49.611Z,10.11
2018-12-02T06:14:49.593Z,10.09
2018-12-02T06:15:49.574Z,10.05
2018-12-02T06:16:49.537Z,10.12
2018-12-02T06:17:49.528Z,10.09
2018-12-02T06:18:49.515Z,10.08
2018-12-02T06:19:49.477Z,10.11
2018-12-02T06:20:49.474Z,10.17
2018-12-02T06:21:49.435Z,10.11
2018-12-02T06:22:49.414Z,10.11
2018-12-02T06:23:49.413Z,10.08
2018-12-02T06:24:49.376Z,10.09
2018-12-02T06:25:49.354Z,10.15
2018-12-02T06:26:49.339Z,10.09
2018-12-02T06:27:49.320Z,10.11
2018-12-02T06:28:49.294Z,10.15
2018-12-02T06:29:49.298Z,10.08
2018-12-02T06:30:49.257Z,10.15
2018-12-02T06:31:49.238Z,10.15
2018-12-02T06:32:49.215Z,10.17
2018-12-02T06:33:49.203Z,10.12
2018-12-02T06:34:49.176Z,10.15
2018-12-02T06:37:31.423Z,10.23
2018-12-02T06:38:31.402Z,10.09
2018-12-02T06:39:31.372Z,10.15
2018-12-02T06:40:31.375Z,10.11
2018-12-02T06:41:31.347Z,10.23
2018-12-02T06:42:31.315Z,10.23
2018-12-02T06:43:31.292Z,10.17
2018-12-02T06:44:31.269Z,10.14
2018-12-02T06:45:31.268Z,10.17
2018-12-02T06:46:31.238Z,10.20
2018-12-02T06:47:31.216Z,10.18
2018-12-02T06:48:31.195Z,10.20
2018-12-02T06:49:31.176Z,10.17
2018-12-02T06:50:31.176Z,10.29
2018-12-02T06:51:31.153Z,10.25
2018-12-02T06:52:31.120Z,10.14
2018-12-02T06:53:31.102Z,10.25
2018-12-02T06:54:31.069Z,10.18
2018-12-02T06:55:31.054Z,10.18
2018-12-02T06:56:31.038Z,10.23
2018-12-02T06:57:31.050Z,10.27
2018-12-02T06:58:31.023Z,10.27
2018-12-02T06:59:30.975Z,10.18
2018-12-02T07:00:30.957Z,10.20
2018-12-02T07:01:30.934Z,10.22
2018-12-02T07:02:30.918Z,10.17
2018-12-02T07:03:30.917Z,10.17
2018-12-02T07:04:30.875Z,10.11
2018-12-02T07:05:30.865Z,10.15
2018-12-02T07:06:30.854Z,10.26
2018-12-02T07:07:30.816Z,10.29
2018-12-02T07:08:30.800Z,10.18
2018-12-02T07:09:30.775Z,10.25
2018-12-02T07:10:30.757Z,10.23
2018-12-02T07:11:30.749Z,10.12
2018-12-02T07:12:30.717Z,10.18
2018-12-02T07:13:30.704Z,10.25
2018-12-02T07:14:30.675Z,10.22
2018-12-02T07:15:30.662Z,10.25
2018-12-02T07:16:30.650Z,10.33
2018-12-02T07:17:30.617Z,10.27
2018-12-02T07:18:30.595Z,10.25
2018-12-02T07:19:30.593Z,10.27
2018-12-02T07:20:30.549Z,10.30
2018-12-02T07:21:30.535Z,10.29
2018-12-02T07:22:30.508Z,10.27
2018-12-02T07:23:30.490Z,10.22
2018-12-02T07:24:30.471Z,10.30
2018-12-02T07:25:30.470Z,10.27
2018-12-02T07:26:30.429Z,10.34
2018-12-02T07:27:30.409Z,10.30
2018-12-02T07:28:30.391Z,10.32
2018-12-02T07:29:30.369Z,10.25
2018-12-02T07:30:30.375Z,10.23
2018-12-02T07:31:30.351Z,10.30
2018-12-02T07:32:30.313Z,10.40
2018-12-02T07:33:30.294Z,10.32
2018-12-02T07:34:30.299Z,10.34
2018-12-02T07:35:30.265Z,10.27
2018-12-02T07:36:30.256Z,10.34
2018-12-02T07:37:30.221Z,10.45
2018-12-02T07:38:30.203Z,10.40
2018-12-02T07:39:30.167Z,10.41
2018-12-02T07:40:30.178Z,10.38
2018-12-02T07:41:30.135Z,10.38
2018-12-02T07:42:30.156Z,10.30
2018-12-02T07:43:30.097Z,10.30
2018-12-02T07:44:30.112Z,10.41
2018-12-02T07:45:30.055Z,10.41
2018-12-02T07:46:30.032Z,10.38
2018-12-02T07:47:30.018Z,10.44
2018-12-02T07:48:30.016Z,10.44
2018-12-02T07:49:29.983Z,10.42
2018-12-02T07:50:29.967Z,10.38
2018-12-02T07:51:29.937Z,10.40
2018-12-02T07:52:29.913Z,10.44
2018-12-02T07:53:29.898Z,10.42
2018-12-02T07:54:29.916Z,10.44
2018-12-02T07:55:29.870Z,10.55
2018-12-02T07:56:29.848Z,10.52
2018-12-02T07:57:29.819Z,10.55
2018-12-02T07:58:29.798Z,10.55
2018-12-02T07:59:29.779Z,10.40
2018-12-02T08:00:29.771Z,10.45
2018-12-02T08:01:29.753Z,10.51
2018-12-02T08:02:29.727Z,10.47
2018-12-02T08:03:29.692Z,10.53
2018-12-02T08:04:29.681Z,10.47
2018-12-02T08:05:29.661Z,10.52
2018-12-02T08:06:29.639Z,10.51
2018-12-02T08:07:29.646Z,10.52
2018-12-02T08:08:29.596Z,10.52
2018-12-02T08:09:29.583Z,10.59
2018-12-02T08:10:29.557Z,10.55
2018-12-02T08:11:29.544Z,10.64
2018-12-02T08:12:29.526Z,10.61
2018-12-02T08:13:29.520Z,10.66
2018-12-02T08:14:29.482Z,10.61
2018-12-02T08:15:29.467Z,10.63
2018-12-02T08:16:29.440Z,10.68
2018-12-02T08:17:29.423Z,10.73
2018-12-02T08:18:29.414Z,10.71
2018-12-02T08:19:29.401Z,10.73
2018-12-02T08:20:29.363Z,10.68
2018-12-02T08:21:29.371Z,10.74
2018-12-02T08:22:29.377Z,10.71
2018-12-02T08:23:29.312Z,10.74
2018-12-02T08:24:29.304Z,10.81
2018-12-02T08:25:29.262Z,10.81
2018-12-02T08:26:29.251Z,10.85
2018-12-02T08:27:29.226Z,10.84
2018-12-02T08:28:29.205Z,10.86
2018-12-02T08:29:29.203Z,10.89
2018-12-02T08:30:29.163Z,10.84
2018-12-02T08:31:29.144Z,10.84
2018-12-02T08:32:29.135Z,10.89
2018-12-02T08:33:29.108Z,10.88
2018-12-02T08:34:29.089Z,10.84
2018-12-02T08:35:29.089Z,10.88
2018-12-02T08:36:29.049Z,10.89
2018-12-02T08:37:29.031Z,10.91
2018-12-02T08:38:29.005Z,10.88
2018-12-02T08:39:29.007Z,10.88
2018-12-02T08:40:28.967Z,10.88
2018-12-02T08:41:28.952Z,10.85
2018-12-02T08:42:28.952Z,10.88
2018-12-02T08:43:28.911Z,10.92
2018-12-02T08:44:28.891Z,10.89
2018-12-02T08:45:28.871Z,10.97
2018-12-02T08:46:28.878Z,10.94
2018-12-02T08:47:28.839Z,11.00
2018-12-02T08:48:28.830Z,11.00
2018-12-02T08:49:28.796Z,11.00
2018-12-02T08:50:28.777Z,11.03
2018-12-02T08:51:28.788Z,10.97
2018-12-02T08:52:28.739Z,10.99
2018-12-02T08:53:28.715Z,11.02
2018-12-02T08:54:28.701Z,11.04
2018-12-02T08:55:28.683Z,11.10
2018-12-02T08:56:28.666Z,11.15
2018-12-02T08:57:28.660Z,11.14
2018-12-02T08:58:28.636Z,11.11
2018-12-02T08:59:28.613Z,11.29
2018-12-02T09:00:28.590Z,11.28
2018-12-02T09:01:28.565Z,11.40
2018-12-02T09:02:28.551Z,11.57
2018-12-02T09:03:28.564Z,11.57
2018-12-02T09:04:28.507Z,11.64
2018-12-02T09:05:28.489Z,11.67
2018-12-02T09:06:28.474Z,11.83
2018-12-02T09:07:28.454Z,11.83
2018-12-02T09:08:28.435Z,11.88
2018-12-02T09:09:28.666Z,11.90
2018-12-02T09:10:28.397Z,11.95
2018-12-02T09:11:28.386Z,11.95
2018-12-02T09:12:28.354Z,11.95
2018-12-02T09:13:28.338Z,11.95
2018-12-02T09:14:28.324Z,12.01
2018-12-02T09:15:28.320Z,12.05
2018-12-02T09:16:28.280Z,12.16
2018-12-02T09:17:28.258Z,12.12
2018-12-02T09:18:28.240Z,12.07
2018-12-02T09:19:28.228Z,12.17
2018-12-02T09:20:28.361Z,12.23
2018-12-02T09:21:28.198Z,12.20
2018-12-02T09:22:28.163Z,12.07
2018-12-02T09:23:28.152Z,12.17
2018-12-02T09:24:28.124Z,12.21
2018-12-02T09:25:28.109Z,12.32
2018-12-02T09:26:28.122Z,12.32
2018-12-02T09:27:28.075Z,12.38
2018-12-02T09:28:28.048Z,12.39
2018-12-02T09:29:28.035Z,12.52
2018-12-02T09:30:28.012Z,12.57
2018-12-02T09:31:28.006Z,12.56
2018-12-02T09:32:27.975Z,12.57
2018-12-02T09:33:27.960Z,12.49
2018-12-02T09:34:27.936Z,12.57
2018-12-02T09:35:27.911Z,12.65
2018-12-02T09:36:27.920Z,12.77
2018-12-02T09:37:27.897Z,12.74
2018-12-02T09:38:27.940Z,12.71
2018-12-02T09:39:27.840Z,12.74
2018-12-02T09:40:27.816Z,12.82
2018-12-02T09:41:27.809Z,12.89
2018-12-02T09:42:27.803Z,12.79
2018-12-02T09:43:27.764Z,12.85
2018-12-02T09:44:27.744Z,12.92
2018-12-02T09:45:27.723Z,12.90
2018-12-02T09:46:27.710Z,12.90
2018-12-02T09:47:27.721Z,12.90
2018-12-02T09:48:27.680Z,13.03
2018-12-02T09:49:27.651Z,12.89
2018-12-02T09:50:27.634Z,12.93
2018-12-02T09:51:27.618Z,13.03
2018-12-02T09:52:27.603Z,12.96
2018-12-02T09:53:27.593Z,12.96
2018-12-02T09:54:27.580Z,13.04
2018-12-02T09:55:27.542Z,13.04
2018-12-02T09:56:27.581Z,13.01
2018-12-02T09:57:27.500Z,13.07
2018-12-02T09:58:27.504Z,12.97
2018-12-02T09:59:27.472Z,13.00
2018-12-02T10:00:27.449Z,13.11
2018-12-02T10:01:27.430Z,12.95
2018-12-02T10:02:27.410Z,13.07
2018-12-02T10:03:27.389Z,13.04
2018-12-02T10:04:27.391Z,13.11
2018-12-02T10:05:27.349Z,13.11
2018-12-02T10:06:27.337Z,13.10
2018-12-02T10:07:27.323Z,13.19
2018-12-02T10:08:27.317Z,13.11
2018-12-02T10:09:27.281Z,13.20
2018-12-02T10:10:27.270Z,13.29
2018-12-02T10:11:27.239Z,13.38
2018-12-02T10:12:27.220Z,13.33
2018-12-02T10:13:27.212Z,13.38
2018-12-02T10:14:27.203Z,13.38
2018-12-02T10:15:27.182Z,13.45
2018-12-02T10:16:27.169Z,13.45
2018-12-02T10:17:27.137Z,13.48
2018-12-02T10:18:27.114Z,13.51
2018-12-02T10:19:27.099Z,13.63
2018-12-02T10:20:27.076Z,13.67
2018-12-02T10:21:27.089Z,13.64
2018-12-02T10:22:27.038Z,13.57
2018-12-02T10:23:27.017Z,13.66
2018-12-02T10:24:27.004Z,13.70
2018-12-02T10:25:27.000Z,13.75
2018-12-02T10:26:26.963Z,13.82
2018-12-02T10:27:26.953Z,13.84
2018-12-02T10:28:26.964Z,13.81
2018-12-02T10:29:26.914Z,13.77
2018-12-02T10:30:26.925Z,13.70
2018-12-02T10:31:26.868Z,13.82
2018-12-02T10:32:26.851Z,13.78
2018-12-02T10:33:26.832Z,13.67
2018-12-02T10:34:26.814Z,13.78
2018-12-02T10:35:26.814Z,13.77
2018-12-02T10:36:26.781Z,13.75
2018-12-02T10:37:26.764Z,13.67
2018-12-02T10:38:26.761Z,13.78
2018-12-02T10:39:26.752Z,13.70
2018-12-02T10:40:26.705Z,13.71
2018-12-02T10:41:26.689Z,13.73
2018-12-02T10:42:26.674Z,13.60
2018-12-02T10:43:26.658Z,13.73
2018-12-02T10:44:26.643Z,13.64
2018-12-02T10:45:26.633Z,13.71
2018-12-02T10:46:26.600Z,13.71
2018-12-02T10:47:26.589Z,13.77
2018-12-02T10:48:26.582Z,13.77
2018-12-02T10:49:26.544Z,13.81
2018-12-02T10:50:26.552Z,13.79
2018-12-02T10:51:26.513Z,13.84
2018-12-02T10:52:26.512Z,13.81
2018-12-02T10:53:26.473Z,13.91
2018-12-02T10:54:26.451Z,13.85
2018-12-02T10:55:26.431Z,13.88
2018-12-02T10:56:26.445Z,13.95
2018-12-02T10:57:26.399Z,13.96
2018-12-02T10:58:26.383Z,13.95
2018-12-02T10:59:26.363Z,14.04
2018-12-02T11:00:26.373Z,13.97
2018-12-02T11:01:26.330Z,13.99
2018-12-02T11:02:26.311Z,14.03
2018-12-02T11:03:26.298Z,14.04
2018-12-02T11:04:26.274Z,13.99
2018-12-02T11:05:26.255Z,14.07
2018-12-02T11:06:26.249Z,14.03
2018-12-02T11:07:26.217Z,14.12
2018-12-02T11:08:26.210Z,14.06
2018-12-02T11:09:26.204Z,14.09
2018-12-02T11:10:26.168Z,14.10
2018-12-02T11:11:26.148Z,14.10
2018-12-02T11:12:26.139Z,14.09
2018-12-02T11:13:26.114Z,14.12
2018-12-02T11:14:26.108Z,14.10
2018-12-02T11:15:26.086Z,14.15
2018-12-02T11:16:26.078Z,14.17
2018-12-02T11:17:26.071Z,14.18
2018-12-02T11:18:26.020Z,14.28
2018-12-02T11:19:26.027Z,14.20
2018-12-02T11:20:25.990Z,14.18
2018-12-02T11:21:25.969Z,14.21
2018-12-02T11:22:25.951Z,14.22
2018-12-02T11:23:25.934Z,14.20
2018-12-02T11:24:25.926Z,14.12
2018-12-02T11:25:25.899Z,14.20
2018-12-02T11:26:25.872Z,14.14
2018-12-02T11:27:25.859Z,14.15
2018-12-02T11:28:25.853Z,14.22
2018-12-02T11:29:25.839Z,14.27
2018-12-02T11:30:25.801Z,14.25
2018-12-02T11:31:25.788Z,14.18
2018-12-02T11:32:25.768Z,14.21
2018-12-02T11:33:25.754Z,14.24
2018-12-02T11:34:25.732Z,14.24
2018-12-02T11:35:25.745Z,14.27
2018-12-02T11:36:25.707Z,14.27
2018-12-02T11:37:25.681Z,14.15
2018-12-02T11:38:25.658Z,14.28
2018-12-02T11:39:25.649Z,14.15
2018-12-02T11:40:25.638Z,14.27
2018-12-02T11:41:25.632Z,14.25
2018-12-02T11:42:25.599Z,14.24
2018-12-02T11:43:25.576Z,14.28
2018-12-02T11:44:25.555Z,14.29
2018-12-02T11:45:25.551Z,14.22
2018-12-02T11:46:25.522Z,14.33
2018-12-02T11:47:25.525Z,14.28
2018-12-02T11:48:25.487Z,14.25
2018-12-02T11:49:25.465Z,14.25
2018-12-02T11:50:25.469Z,14.37
2018-12-02T11:51:25.458Z,14.33
2018-12-02T11:52:25.430Z,14.32
2018-12-02T11:53:25.395Z,14.33
2018-12-02T11:54:25.380Z,14.29
2018-12-02T11:55:25.371Z,14.29
2018-12-02T11:56:25.345Z,14.37
2018-12-02T11:57:26.639Z,14.39
2018-12-02T11:58:25.310Z,14.39
2018-12-02T11:59:25.290Z,14.43
2018-12-02T12:00:25.277Z,14.36
2018-12-02T12:01:25.257Z,14.40
2018-12-02T12:02:25.258Z,14.43
2018-12-02T12:03:25.220Z,14.39
2018-12-02T12:04:25.201Z,14.54
2018-12-02T12:05:26.083Z,14.52
2018-12-02T12:06:25.176Z,14.51
2018-12-02T12:07:25.157Z,14.60
2018-12-02T12:08:25.156Z,14.61
2018-12-02T12:09:25.132Z,14.58
2018-12-02T12:10:25.100Z,14.65
2018-12-02T12:11:25.083Z,14.64
2018-12-02T12:12:25.063Z,14.77
2018-12-02T12:13:25.044Z,14.77
2018-12-02T12:14:25.045Z,14.94
2018-12-02T12:15:25.004Z,14.91
2018-12-02T12:16:25.000Z,14.89
2018-12-02T12:17:24.985Z,14.84
2018-12-02T12:18:24.961Z,14.94
2018-12-02T12:19:24.940Z,14.91
2018-12-02T12:20:24.946Z,14.98
2018-12-02T12:21:24.913Z,14.99
2018-12-02T12:22:24.894Z,14.98
2018-12-02T12:23:24.889Z,14.94
2018-12-02T12:24:24.857Z,15.02
2018-12-02T12:25:24.841Z,15.02
2018-12-02T12:26:24.827Z,14.96
2018-12-02T12:27:24.804Z,14.92
2018-12-02T12:28:24.800Z,14.98
2018-12-02T12:29:24.767Z,14.95
2018-12-02T12:30:24.754Z,14.98
2018-12-02T12:31:24.741Z,14.98
2018-12-02T12:32:24.716Z,14.95
2018-12-02T12:33:24.713Z,14.95
2018-12-02T12:34:24.682Z,14.98
2018-12-02T12:35:24.664Z,15.09
2018-12-02T12:36:24.665Z,14.98
2018-12-02T12:37:24.672Z,15.02
2018-12-02T12:38:24.621Z,14.94
2018-12-02T12:39:24.597Z,15.11
2018-12-02T12:40:24.599Z,15.02
2018-12-02T12:41:24.584Z,15.10
2018-12-02T12:42:24.601Z,15.13
2018-12-02T12:43:24.529Z,15.10
2018-12-02T12:44:24.514Z,15.01
2018-12-02T12:45:24.499Z,15.02
2018-12-02T12:46:24.495Z,15.02
2018-12-02T12:47:24.479Z,14.94
2018-12-02T12:48:24.470Z,14.98
2018-12-02T12:49:24.429Z,14.88
2018-12-02T12:50:24.411Z,14.98
2018-12-02T12:51:24.391Z,14.98
2018-12-02T12:52:24.387Z,14.98
2018-12-02T12:53:24.360Z,14.94
2018-12-02T12:54:24.360Z,14.99
2018-12-02T12:55:24.325Z,14.92
2018-12-02T12:56:24.324Z,15.09
2018-12-02T12:57:24.292Z,15.06
2018-12-02T12:58:24.272Z,15.03